Time;durP1;ratioP1;P1;durP2;ratioP2;P2;SDS_P1;SDS_P2;PMS_P1;PMS_P2;Temp;Humidity;BMP_temperature;BMP_pressure;BME280_temperature;BME280_humidity;BME280_pressure;Samples;Min_cycle;Max_cycle;Signal;HPM_P1;HPM_P2
2024/01/12 00:01:54;;;;;;;;;;;0.50;99.90;;;;;;2620071;54;19998;-73
2024/01/12 00:04:26;;;;;;;;;;;1.30;99.90;;;;;;2621171;51;19938;-71
2024/01/12 00:06:56;;;;;;;;;;;0.60;99.90;;;;;;2619730;54;19950;-70
2024/01/12 00:09:26;;;;;;;;;;;0.60;99.90;;;;;;2619206;39;20345;-71
2024/01/12 00:11:56;;;;;;;;;;;0.60;99.90;;;;;;2621059;54;20450;-71
2024/01/12 00:14:26;;;;;;;;;;;0.70;99.90;;;;;;2615849;54;19947;-70
2024/01/12 00:16:56;;;;;;;;;;;0.70;99.90;;;;;;2613987;47;19950;-70
2024/01/12 00:19:28;;;;;;;;;;;0.70;99.90;;;;;;2619931;54;19951;-72
2024/01/12 00:21:58;;;;;;;;;;;0.70;99.90;;;;;;2617288;54;19949;-71
2024/01/12 00:24:27;;;;;;;;;;;0.70;99.90;;;;;;2616049;39;20248;-73
2024/01/12 00:26:57;;;;;;;;;;;0.70;99.90;;;;;;2616201;39;20349;-71
2024/01/12 00:29:27;;;;;;;;;;;0.70;99.90;;;;;;2615570;54;19946;-72
2024/01/12 00:31:57;;;;;;;;;;;0.70;99.90;;;;;;2614936;47;19953;-70
2024/01/12 00:34:30;;;;;;;;;;;0.60;99.90;;;;;;2612392;47;19950;-70
2024/01/12 00:36:59;;;;;;;;;;;0.60;99.90;;;;;;2615343;54;19939;-72
2024/01/12 00:39:29;;;;;;;;;;;0.60;99.90;;;;;;2611775;47;19958;-72
2024/01/12 00:41:58;;;;;;;;;;;0.60;99.90;;;;;;2614358;46;19950;-72
2024/01/12 00:44:28;;;;;;;;;;;0.60;99.90;;;;;;2616085;54;19943;-72
2024/01/12 00:46:58;;;;;;;;;;;0.60;99.90;;;;;;2615336;54;20421;-71
2024/01/12 00:49:30;;;;;;;;;;;0.60;99.90;;;;;;2615275;54;19946;-70
2024/01/12 00:52:00;;;;;;;;;;;0.60;99.90;;;;;;2615407;47;19949;-72
2024/01/12 00:54:29;;;;;;;;;;;0.60;99.90;;;;;;2615748;54;19955;-72
2024/01/12 00:56:59;;;;;;;;;;;0.60;99.90;;;;;;2615645;39;20348;-72
2024/01/12 00:59:29;;;;;;;;;;;0.60;99.90;;;;;;2614363;54;19947;-72
2024/01/12 01:01:58;;;;;;;;;;;0.60;99.90;;;;;;2613927;54;19954;-71
2024/01/12 01:04:32;;;;;;;;;;;0.60;99.90;;;;;;2615985;39;20349;-71
2024/01/12 01:07:01;;;;;;;;;;;0.70;99.90;;;;;;2614640;47;19939;-70
2024/01/12 01:09:31;;;;;;;;;;;0.70;99.90;;;;;;2613408;47;19955;-70
2024/01/12 01:12:01;;;;;;;;;;;0.70;99.90;;;;;;2615390;47;19994;-71
2024/01/12 01:14:31;;;;;;;;;;;0.70;99.90;;;;;;2616198;54;20450;-71
2024/01/12 01:17:01;;;;;;;;;;;0.80;99.90;;;;;;2620784;54;19939;-70
2024/01/12 01:19:34;;;;;;;;;;;0.80;99.90;;;;;;2618508;54;19945;-71
2024/01/12 01:22:04;;;;;;;;;;;0.80;99.90;;;;;;2616873;47;20458;-72
2024/01/12 01:24:34;;;;;;;;;;;0.80;99.90;;;;;;2613880;54;19947;-71
2024/01/12 01:27:03;;;;;;;;;;;0.90;99.90;;;;;;2615134;47;19938;-70
2024/01/12 01:29:34;;;;;;;;;;;0.90;99.90;;;;;;2615687;54;20506;-71
2024/01/12 01:32:03;;;;;;;;;;;0.90;99.90;;;;;;2616337;54;20482;-73
2024/01/12 01:34:36;;;;;;;;;;;1.00;99.90;;;;;;2616872;54;19946;-72
2024/01/12 01:37:07;;;;;;;;;;;1.00;99.90;;;;;;2616301;54;19976;-70
2024/01/12 01:39:37;;;;;;;;;;;1.10;99.90;;;;;;2616449;54;19950;-72
2024/01/12 01:42:07;;;;;;;;;;;1.10;99.90;;;;;;2616155;47;19954;-71
2024/01/12 01:44:36;;;;;;;;;;;1.10;99.90;;;;;;2615013;54;19970;-71
2024/01/12 01:47:07;;;;;;;;;;;1.10;99.90;;;;;;2615812;54;19962;-72
2024/01/12 01:49:39;;;;;;;;;;;1.10;99.90;;;;;;2615941;50;19946;-70
2024/01/12 01:52:11;;;;;;;;;;;1.10;99.90;;;;;;2622438;54;19947;-71
2024/01/12 01:54:41;;;;;;;;;;;1.20;99.90;;;;;;2616069;54;19943;-70
2024/01/12 01:57:11;;;;;;;;;;;1.20;99.90;;;;;;2615790;54;19974;-72
2024/01/12 01:59:41;;;;;;;;;;;1.20;99.90;;;;;;2616272;54;20460;-71
2024/01/12 02:02:10;;;;;;;;;;;1.20;99.90;;;;;;2616519;54;20046;-70
2024/01/12 02:04:43;;;;;;;;;;;1.20;99.90;;;;;;2617306;54;19951;-70
2024/01/12 02:07:13;;;;;;;;;;;1.20;99.90;;;;;;2617325;54;19947;-71
2024/01/12 02:09:43;;;;;;;;;;;1.30;99.90;;;;;;2618014;54;19958;-71
2024/01/12 02:12:13;;;;;;;;;;;1.30;99.90;;;;;;2621162;54;20007;-71
2024/01/12 02:14:43;;;;;;;;;;;1.40;99.90;;;;;;2621165;47;19938;-71
2024/01/12 02:17:13;;;;;;;;;;;1.30;99.90;;;;;;2619050;54;20441;-71
2024/01/12 02:19:45;;;;;;;;;;;1.40;99.90;;;;;;2615037;54;19947;-71
2024/01/12 02:22:19;;;;;;;;;;;1.40;99.90;;;;;;2616817;54;19946;-72
2024/01/12 02:24:49;;;;;;;;;;;1.40;99.90;;;;;;2623540;54;19935;-72
2024/01/12 02:27:19;;;;;;;;;;;1.40;99.90;;;;;;2625948;54;19990;-72
2024/01/12 02:29:50;;;;;;;;;;;1.50;99.90;;;;;;2627146;54;20049;-73
2024/01/12 02:32:20;;;;;;;;;;;1.50;99.90;;;;;;2626209;47;19942;-71
2024/01/12 02:34:48;;;;;;;;;;;1.40;99.90;;;;;;2624413;47;19945;-72
2024/01/12 02:37:20;;;;;;;;;;;1.50;99.90;;;;;;2624233;54;20034;-70
2024/01/12 02:39:49;;;;;;;;;;;1.50;99.90;;;;;;2616215;54;19958;-71
2024/01/12 02:42:19;;;;;;;;;;;1.50;99.90;;;;;;2617524;50;20030;-71
2024/01/12 02:44:49;;;;;;;;;;;1.50;99.90;;;;;;2616405;54;19939;-73
2024/01/12 02:47:18;;;;;;;;;;;1.50;99.90;;;;;;2615146;54;19971;-71
2024/01/12 02:49:48;;;;;;;;;;;1.50;99.90;;;;;;2615213;47;20100;-72
2024/01/12 02:52:20;;;;;;;;;;;1.50;99.90;;;;;;2614203;54;19958;-71
2024/01/12 02:54:50;;;;;;;;;;;1.50;99.90;;;;;;2613500;54;19954;-70
2024/01/12 02:57:19;;;;;;;;;;;1.50;99.90;;;;;;2614616;54;20463;-73
2024/01/12 02:59:49;;;;;;;;;;;1.50;99.90;;;;;;2616191;54;20030;-70
2024/01/12 03:02:19;;;;;;;;;;;1.40;99.90;;;;;;2616229;54;19954;-71
2024/01/12 03:04:49;;;;;;;;;;;1.40;99.90;;;;;;2616526;54;20438;-71
2024/01/12 03:07:21;;;;;;;;;;;1.40;99.90;;;;;;2615411;46;19961;-70
2024/01/12 03:09:50;;;;;;;;;;;1.50;99.90;;;;;;2615039;54;19938;-72
2024/01/12 03:12:20;;;;;;;;;;;1.50;99.90;;;;;;2617646;39;20350;-71
2024/01/12 03:14:50;;;;;;;;;;;1.50;99.90;;;;;;2616764;54;19954;-71
2024/01/12 03:17:20;;;;;;;;;;;1.50;99.90;;;;;;2616547;54;19961;-71
2024/01/12 03:19:50;;;;;;;;;;;1.50;99.90;;;;;;2616646;54;19950;-70
2024/01/12 03:22:22;;;;;;;;;;;1.50;99.90;;;;;;2617102;54;19947;-72
2024/01/12 03:24:52;;;;;;;;;;;1.50;99.90;;;;;;2624763;47;19941;-70
2024/01/12 03:27:21;;;;;;;;;;;1.50;99.90;;;;;;2617521;54;19954;-71
2024/01/12 03:29:51;;;;;;;;;;;1.40;99.90;;;;;;2614393;54;19953;-73
2024/01/12 03:32:21;;;;;;;;;;;1.40;99.90;;;;;;2615103;47;19947;-71
2024/01/12 03:34:50;;;;;;;;;;;1.40;99.90;;;;;;2616266;54;19939;-72
2024/01/12 03:37:23;;;;;;;;;;;1.40;99.90;;;;;;2615463;54;19938;-71
2024/01/12 03:39:52;;;;;;;;;;;1.40;99.90;;;;;;2614978;54;19938;-72
2024/01/12 03:42:22;;;;;;;;;;;1.50;99.90;;;;;;2615830;47;20044;-72
2024/01/12 03:44:52;;;;;;;;;;;1.40;99.90;;;;;;2614708;54;20034;-71
2024/01/12 03:47:21;;;;;;;;;;;1.50;99.90;;;;;;2615358;54;19946;-71
2024/01/12 03:49:51;;;;;;;;;;;1.50;99.90;;;;;;2614617;54;20498;-71
2024/01/12 03:52:24;;;;;;;;;;;1.50;99.90;;;;;;2616601;47;19946;-71
2024/01/12 03:54:53;;;;;;;;;;;1.50;99.90;;;;;;2616426;47;19971;-72
2024/01/12 03:57:23;;;;;;;;;;;1.60;99.90;;;;;;2619120;39;20401;-73
2024/01/12 03:59:53;;;;;;;;;;;1.60;99.90;;;;;;2617791;47;19950;-70
2024/01/12 04:02:23;;;;;;;;;;;1.50;99.90;;;;;;2619596;54;19970;-74
2024/01/12 04:04:53;;;;;;;;;;;1.60;99.90;;;;;;2619541;54;19939;-71
2024/01/12 04:07:25;;;;;;;;;;;1.60;99.90;;;;;;2617129;54;20450;-71
2024/01/12 04:09:54;;;;;;;;;;;1.60;99.90;;;;;;2617730;39;20337;-72
2024/01/12 04:12:24;;;;;;;;;;;1.60;99.90;;;;;;2615748;54;19951;-71
2024/01/12 04:14:54;;;;;;;;;;;1.60;99.90;;;;;;2617626;54;19938;-71
2024/01/12 04:17:23;;;;;;;;;;;1.60;99.90;;;;;;2615957;54;19986;-71
2024/01/12 04:19:53;;;;;;;;;;;1.60;99.90;;;;;;2618439;54;19976;-71
2024/01/12 04:22:25;;;;;;;;;;;1.60;99.90;;;;;;2615265;54;19965;-70
2024/01/12 04:24:55;;;;;;;;;;;1.60;99.90;;;;;;2617113;47;19938;-71
2024/01/12 04:27:26;;;;;;;;;;;1.60;99.90;;;;;;2618050;54;19946;-71
2024/01/12 04:29:56;;;;;;;;;;;1.70;99.90;;;;;;2618215;54;19935;-70
2024/01/12 04:32:26;;;;;;;;;;;1.70;99.90;;;;;;2617067;54;19946;-71
2024/01/12 04:34:56;;;;;;;;;;;1.70;99.90;;;;;;2618849;54;19951;-70
2024/01/12 04:37:28;;;;;;;;;;;1.70;99.90;;;;;;2618449;54;19946;-71
2024/01/12 04:39:58;;;;;;;;;;;1.60;99.90;;;;;;2619065;54;19994;-71
2024/01/12 04:42:27;;;;;;;;;;;1.60;99.90;;;;;;2616621;54;19950;-71
2024/01/12 04:44:57;;;;;;;;;;;1.60;99.90;;;;;;2619579;54;19953;-75
2024/01/12 04:47:27;;;;;;;;;;;1.60;99.90;;;;;;2616269;54;19935;-71
2024/01/12 04:49:56;;;;;;;;;;;1.60;99.90;;;;;;2618912;54;19958;-71
2024/01/12 04:52:29;;;;;;;;;;;1.60;99.90;;;;;;2614816;54;19947;-72
2024/01/12 04:54:59;;;;;;;;;;;1.60;99.90;;;;;;2617573;54;19957;-70
2024/01/12 04:57:29;;;;;;;;;;;1.60;99.90;;;;;;2617705;54;19950;-71
2024/01/12 04:59:58;;;;;;;;;;;1.60;99.90;;;;;;2619342;49;19923;-73
2024/01/12 05:02:28;;;;;;;;;;;1.60;99.90;;;;;;2618407;54;19930;-72
2024/01/12 05:04:58;;;;;;;;;;;1.60;99.90;;;;;;2619212;54;19958;-71
2024/01/12 05:07:30;;;;;;;;;;;1.70;99.90;;;;;;2616478;54;20462;-72
2024/01/12 05:10:00;;;;;;;;;;;1.60;99.90;;;;;;2617892;54;20152;-73
2024/01/12 05:12:29;;;;;;;;;;;1.60;99.90;;;;;;2618679;54;19962;-71
2024/01/12 05:14:59;;;;;;;;;;;1.60;99.90;;;;;;2618313;54;19939;-73
2024/01/12 05:17:29;;;;;;;;;;;1.60;99.90;;;;;;2619136;54;19961;-72
2024/01/12 05:20:06;;;;;;;;;;;1.60;99.90;;;;;;2619302;39;20398;-72
2024/01/12 05:22:39;;;;;;;;;;;1.60;99.90;;;;;;2619167;54;19966;-73
2024/01/12 05:25:09;;;;;;;;;;;1.70;99.90;;;;;;2618402;54;19946;-72
2024/01/12 05:27:38;;;;;;;;;;;1.60;99.90;;;;;;2617526;54;19957;-73
2024/01/12 05:30:09;;;;;;;;;;;1.60;99.90;;;;;;2618190;54;20580;-74
2024/01/12 05:32:39;;;;;;;;;;;1.60;99.90;;;;;;2624130;54;19927;-72
2024/01/12 05:35:09;;;;;;;;;;;1.60;99.90;;;;;;2622539;54;20571;-72
2024/01/12 05:37:43;;;;;;;;;;;1.60;99.90;;;;;;2618382;47;19946;-73
2024/01/12 05:40:13;;;;;;;;;;;1.60;99.90;;;;;;2619302;47;19939;-71
2024/01/12 05:42:43;;;;;;;;;;;1.60;99.90;;;;;;2619955;54;20079;-73
2024/01/12 05:45:12;;;;;;;;;;;1.60;99.90;;;;;;2619261;54;19972;-72
2024/01/12 05:47:42;;;;;;;;;;;1.70;99.90;;;;;;2616154;54;19947;-72
2024/01/12 05:50:12;;;;;;;;;;;1.60;99.90;;;;;;2615265;39;20396;-73
2024/01/12 05:52:44;;;;;;;;;;;1.60;99.90;;;;;;2617292;47;19935;-77
2024/01/12 05:55:14;;;;;;;;;;;1.70;99.90;;;;;;2619097;47;20034;-76
2024/01/12 05:57:44;;;;;;;;;;;1.60;99.90;;;;;;2618559;47;19962;-76
2024/01/12 06:00:16;;;;;;;;;;;1.70;99.90;;;;;;2617383;47;19990;-76
2024/01/12 06:02:46;;;;;;;;;;;1.70;99.90;;;;;;2618186;47;19953;-76
2024/01/12 06:05:16;;;;;;;;;;;1.70;99.90;;;;;;2624740;49;19966;-76
2024/01/12 06:07:49;;;;;;;;;;;1.70;99.90;;;;;;2617916;54;20432;-77
2024/01/12 06:10:19;;;;;;;;;;;1.60;99.90;;;;;;2624709;47;19958;-76
2024/01/12 06:12:49;;;;;;;;;;;1.60;99.90;;;;;;2619635;54;20053;-76
2024/01/12 06:15:19;;;;;;;;;;;1.50;99.90;;;;;;2617162;47;19953;-76
2024/01/12 06:17:49;;;;;;;;;;;1.50;99.90;;;;;;2625722;54;19994;-76
2024/01/12 06:20:19;;;;;;;;;;;1.50;99.90;;;;;;2626754;47;20026;-76
2024/01/12 06:22:51;;;;;;;;;;;1.50;99.90;;;;;;2618666;47;19994;-75
2024/01/12 06:25:21;;;;;;;;;;;1.40;99.90;;;;;;2616851;47;19998;-76
2024/01/12 06:27:51;;;;;;;;;;;1.40;99.90;;;;;;2618346;46;19965;-79
2024/01/12 06:30:21;;;;;;;;;;;1.30;99.90;;;;;;2619806;54;19994;-78
2024/01/12 06:32:51;;;;;;;;;;;1.30;99.90;;;;;;2625669;47;19946;-78
2024/01/12 06:35:21;;;;;;;;;;;1.50;99.90;;;;;;2618758;54;19951;-77
2024/01/12 06:37:54;;;;;;;;;;;1.30;99.90;;;;;;2620020;54;19995;-77
2024/01/12 06:40:24;;;;;;;;;;;1.30;99.90;;;;;;2619078;47;19954;-79
2024/01/12 06:42:54;;;;;;;;;;;1.30;99.90;;;;;;2620213;47;19957;-77
2024/01/12 06:45:23;;;;;;;;;;;1.30;99.90;;;;;;2619970;47;19965;-79
2024/01/12 06:47:53;;;;;;;;;;;1.30;99.90;;;;;;2619325;54;19962;-80
2024/01/12 06:50:23;;;;;;;;;;;1.30;99.90;;;;;;2620747;54;19927;-78
2024/01/12 06:52:56;;;;;;;;;;;1.40;99.90;;;;;;2626227;46;20058;-77
2024/01/12 06:55:26;;;;;;;;;;;1.10;99.90;;;;;;2618412;39;20337;-77
2024/01/12 06:57:55;;;;;;;;;;;1.30;99.90;;;;;;2617965;54;19947;-76
2024/01/12 07:00:25;;;;;;;;;;;1.30;99.90;;;;;;2617070;47;20054;-77
2024/01/12 07:02:55;;;;;;;;;;;1.30;99.90;;;;;;2618705;39;20361;-77
2024/01/12 07:05:25;;;;;;;;;;;1.20;99.90;;;;;;2617720;54;20041;-78
2024/01/12 07:07:58;;;;;;;;;;;1.20;99.90;;;;;;2618723;47;19973;-78
2024/01/12 07:10:28;;;;;;;;;;;1.20;99.90;;;;;;2617817;47;19947;-76
2024/01/12 07:12:58;;;;;;;;;;;1.10;99.90;;;;;;2618618;54;19954;-76
2024/01/12 07:15:28;;;;;;;;;;;1.10;99.90;;;;;;2619781;47;19947;-79
2024/01/12 07:18:01;;;;;;;;;;;1.10;99.90;;;;;;2621281;54;19957;-78
2024/01/12 07:20:31;;;;;;;;;;;1.00;99.90;;;;;;2620450;54;19939;-80
2024/01/12 07:23:04;;;;;;;;;;;1.20;99.90;;;;;;2622739;39;20045;-79
2024/01/12 07:25:36;;;;;;;;;;;1.10;99.90;;;;;;2619987;54;20071;-77
2024/01/12 07:28:07;;;;;;;;;;;1.10;99.90;;;;;;2621055;47;19947;-80
2024/01/12 07:30:37;;;;;;;;;;;1.10;99.90;;;;;;2621963;54;19966;-78
2024/01/12 07:33:08;;;;;;;;;;;1.20;99.90;;;;;;2618048;54;20450;-80
2024/01/12 07:35:39;;;;;;;;;;;1.20;99.90;;;;;;2618111;47;19939;-78
2024/01/12 07:38:12;;;;;;;;;;;1.20;99.90;;;;;;2621190;47;20015;-78
2024/01/12 07:40:42;;;;;;;;;;;1.20;99.90;;;;;;2629965;54;19939;-79
2024/01/12 07:43:12;;;;;;;;;;;0.00;99.90;;;;;;2630087;47;19967;-80
2024/01/12 07:45:42;;;;;;;;;;;1.10;99.90;;;;;;2623809;47;19947;-80
2024/01/12 07:48:13;;;;;;;;;;;1.20;99.90;;;;;;2622998;47;20534;-79
2024/01/12 07:50:43;;;;;;;;;;;1.70;99.90;;;;;;2629913;54;19973;-78
2024/01/12 07:53:16;;;;;;;;;;;1.30;99.90;;;;;;2629236;47;20034;-79
2024/01/12 07:55:49;;;;;;;;;;;1.30;99.90;;;;;;2619582;54;19950;-79
2024/01/12 07:58:20;;;;;;;;;;;0.90;99.90;;;;;;2621245;54;19987;-77
2024/01/12 08:00:53;;;;;;;;;;;2.10;99.90;;;;;;2625916;47;19951;-80
2024/01/12 08:03:23;;;;;;;;;;;1.20;99.90;;;;;;2623549;54;20461;-76
2024/01/12 08:05:53;;;;;;;;;;;1.20;99.90;;;;;;2618355;54;19954;-77
2024/01/12 08:08:26;;;;;;;;;;;1.30;99.90;;;;;;2616757;47;19954;-77
2024/01/12 08:10:57;;;;;;;;;;;1.40;99.90;;;;;;2610952;54;20010;-77
2024/01/12 08:13:27;;;;;;;;;;;1.40;99.90;;;;;;2615394;54;19958;-78
2024/01/12 08:15:57;;;;;;;;;;;1.50;99.90;;;;;;2618744;54;19950;-77
2024/01/12 08:18:28;;;;;;;;;;;1.50;99.90;;;;;;2620135;54;19969;-75
2024/01/12 08:20:59;;;;;;;;;;;1.40;99.90;;;;;;2620017;47;19942;-78
2024/01/12 08:23:32;;;;;;;;;;;1.40;99.90;;;;;;2620336;47;20493;-78
2024/01/12 08:26:02;;;;;;;;;;;1.40;99.90;;;;;;2623563;47;20020;-76
2024/01/12 08:28:32;;;;;;;;;;;1.40;99.90;;;;;;2618312;47;19942;-81
2024/01/12 08:31:03;;;;;;;;;;;1.50;99.90;;;;;;2617093;54;19947;-77
2024/01/12 08:33:36;;;;;;;;;;;2.30;99.90;;;;;;2617090;47;19947;-80
2024/01/12 08:36:07;;;;;;;;;;;1.50;99.90;;;;;;2616738;39;20344;-77
2024/01/12 08:38:40;;;;;;;;;;;1.50;99.90;;;;;;2614542;54;19947;-77
2024/01/12 08:41:30;;;;;;;;;;;1.50;99.90;;;;;;2613681;46;19962;-76
2024/01/12 08:44:02;;;;;;;;;;;1.30;99.90;;;;;;2612964;54;19976;-77
2024/01/12 08:46:32;;;;;;;;;;;1.40;99.90;;;;;;2612741;54;19942;-78
2024/01/12 08:49:02;;;;;;;;;;;1.40;99.90;;;;;;2611899;54;19950;-76
2024/01/12 08:51:34;;;;;;;;;;;1.40;99.90;;;;;;2612898;47;20029;-76
2024/01/12 08:54:06;;;;;;;;;;;1.40;99.90;;;;;;2613275;47;19988;-76
2024/01/12 08:56:36;;;;;;;;;;;1.40;99.90;;;;;;2614491;47;20046;-77
2024/01/12 08:59:08;;;;;;;;;;;2.50;99.90;;;;;;2616694;46;19951;-75
2024/01/12 09:01:41;;;;;;;;;;;1.30;99.90;;;;;;2619420;47;19954;-77
2024/01/12 09:04:11;;;;;;;;;;;1.50;99.90;;;;;;2628792;54;19942;-76
2024/01/12 09:06:42;;;;;;;;;;;1.60;99.90;;;;;;2624438;54;19946;-78
2024/01/12 09:09:18;;;;;;;;;;;1.40;99.90;;;;;;2615746;54;19951;-76
2024/01/12 09:11:49;;;;;;;;;;;1.40;99.90;;;;;;2617517;54;19935;-76
2024/01/12 09:14:19;;;;;;;;;;;1.30;99.90;;;;;;2616396;54;19941;-74
2024/01/12 09:16:49;;;;;;;;;;;1.40;99.90;;;;;;2615574;54;19934;-76
2024/01/12 09:19:21;;;;;;;;;;;1.40;99.90;;;;;;2614952;47;20034;-77
2024/01/12 09:21:54;;;;;;;;;;;2.60;99.90;;;;;;2613708;47;19951;-74
2024/01/12 09:24:27;;;;;;;;;;;2.30;99.90;;;;;;2615279;54;19957;-73
2024/01/12 09:26:57;;;;;;;;;;;1.40;99.90;;;;;;2613795;47;19961;-74
2024/01/12 09:29:28;;;;;;;;;;;1.50;99.90;;;;;;2610614;54;19947;-77
2024/01/12 09:32:02;;;;;;;;;;;1.60;99.90;;;;;;2614345;54;19946;-75
2024/01/12 09:34:32;;;;;;;;;;;1.70;99.90;;;;;;2613270;46;20002;-75
2024/01/12 09:37:03;;;;;;;;;;;2.00;99.90;;;;;;2610865;54;19946;-73
2024/01/12 09:39:38;;;;;;;;;;;1.90;99.90;;;;;;2611849;47;19974;-74
2024/01/12 09:42:09;;;;;;;;;;;3.10;99.90;;;;;;2611659;39;20326;-74
2024/01/12 09:44:42;;;;;;;;;;;2.00;99.90;;;;;;2612151;47;19958;-74
2024/01/12 09:47:19;;;;;;;;;;;2.00;99.90;;;;;;2615654;54;19957;-74
2024/01/12 09:49:50;;;;;;;;;;;2.10;99.90;;;;;;2614057;47;20002;-73
2024/01/12 09:52:20;;;;;;;;;;;2.00;99.90;;;;;;2616062;39;20037;-74
2024/01/12 09:54:53;;;;;;;;;;;1.90;99.90;;;;;;2611843;54;19950;-75
2024/01/12 09:57:24;;;;;;;;;;;2.10;99.90;;;;;;2617664;54;19958;-77
2024/01/12 09:59:59;;;;;;;;;;;2.80;99.90;;;;;;2615779;54;20509;-78
2024/01/12 10:02:29;;;;;;;;;;;2.30;99.90;;;;;;2615551;54;19992;-79
2024/01/12 10:05:00;;;;;;;;;;;2.30;99.90;;;;;;2615960;39;20702;-77
2024/01/12 10:07:30;;;;;;;;;;;2.20;99.90;;;;;;2617511;46;19947;-78
2024/01/12 10:10:03;;;;;;;;;;;2.10;99.90;;;;;;2617600;47;19954;-78
2024/01/12 10:12:34;;;;;;;;;;;2.10;99.90;;;;;;2615993;47;19947;-78
2024/01/12 10:15:04;;;;;;;;;;;2.00;99.90;;;;;;2616898;47;19946;-77
2024/01/12 10:17:35;;;;;;;;;;;2.10;99.90;;;;;;2615160;54;19946;-77
2024/01/12 10:20:09;;;;;;;;;;;2.00;99.90;;;;;;2618201;47;19946;-77
2024/01/12 10:22:40;;;;;;;;;;;2.00;99.90;;;;;;2627680;54;19957;-79
2024/01/12 10:25:16;;;;;;;;;;;2.40;99.90;;;;;;2622076;54;19947;-79
2024/01/12 10:27:56;;;;;;;;;;;2.00;99.90;;;;;;2616858;54;19947;-78
2024/01/12 10:30:26;;;;;;;;;;;1.90;99.90;;;;;;2616202;39;20480;-78
2024/01/12 10:32:57;;;;;;;;;;;1.90;99.90;;;;;;2615843;39;20206;-78
2024/01/12 10:35:27;;;;;;;;;;;1.80;99.90;;;;;;2615763;47;19954;-78
2024/01/12 10:38:00;;;;;;;;;;;1.80;99.90;;;;;;2616302;54;19999;-80
2024/01/12 10:40:33;;;;;;;;;;;1.80;99.90;;;;;;2615451;54;19947;-81
2024/01/12 10:43:04;;;;;;;;;;;1.80;99.90;;;;;;2615156;54;19957;-77
2024/01/12 10:45:35;;;;;;;;;;;1.80;99.90;;;;;;2614748;47;19953;-77
2024/01/12 10:48:12;;;;;;;;;;;1.80;99.90;;;;;;2615501;47;19954;-77
2024/01/12 10:50:43;;;;;;;;;;;1.80;99.90;;;;;;2616848;47;19947;-78
2024/01/12 10:53:17;;;;;;;;;;;1.80;99.90;;;;;;2615554;39;20357;-78
2024/01/12 10:55:58;;;;;;;;;;;2.10;99.90;;;;;;2616349;54;20001;-78
2024/01/12 10:58:29;;;;;;;;;;;1.80;99.90;;;;;;2622725;54;19939;-80
2024/01/12 11:01:00;;;;;;;;;;;1.80;99.90;;;;;;2623300;46;19954;-77
2024/01/12 11:03:31;;;;;;;;;;;1.80;99.90;;;;;;2617856;54;20030;-77
2024/01/12 11:06:02;;;;;;;;;;;1.80;99.90;;;;;;2618277;54;19947;-79
2024/01/12 11:08:33;;;;;;;;;;;1.80;99.90;;;;;;2617002;47;19970;-79
2024/01/12 11:11:07;;;;;;;;;;;1.90;99.90;;;;;;2618658;54;19954;-78
2024/01/12 11:13:40;;;;;;;;;;;1.80;99.90;;;;;;2620718;47;20042;-78
2024/01/12 11:16:12;;;;;;;;;;;1.80;99.90;;;;;;2619303;54;19946;-78
2024/01/12 11:18:43;;;;;;;;;;;1.80;99.90;;;;;;2617425;46;19955;-76
2024/01/12 11:21:13;;;;;;;;;;;1.70;99.90;;;;;;2616998;47;19939;-80
2024/01/12 11:23:44;;;;;;;;;;;2.40;99.90;;;;;;2618374;54;20969;-78
2024/01/12 11:26:24;;;;;;;;;;;1.80;99.90;;;;;;2616717;47;19951;-77
2024/01/12 11:29:00;;;;;;;;;;;1.70;99.90;;;;;;2616286;47;19950;-78
2024/01/12 11:31:30;;;;;;;;;;;1.70;99.90;;;;;;2616286;54;20022;-77
2024/01/12 11:34:02;;;;;;;;;;;3.10;99.90;;;;;;2617342;39;20236;-78
2024/01/12 11:36:33;;;;;;;;;;;1.70;99.90;;;;;;2620199;47;19962;-80
2024/01/12 11:39:04;;;;;;;;;;;1.80;99.90;;;;;;2628732;54;19963;-77
2024/01/12 11:41:37;;;;;;;;;;;1.60;99.90;;;;;;2628322;54;19939;-79
2024/01/12 11:44:08;;;;;;;;;;;1.70;99.90;;;;;;2616386;54;19954;-76
2024/01/12 11:46:38;;;;;;;;;;;1.80;99.90;;;;;;2615350;54;19946;-77
2024/01/12 11:49:09;;;;;;;;;;;1.80;99.90;;;;;;2613709;46;19950;-79
2024/01/12 11:51:39;;;;;;;;;;;2.40;99.90;;;;;;2613868;54;20003;-77
2024/01/12 11:54:12;;;;;;;;;;;2.20;99.90;;;;;;2614823;47;19953;-78
2024/01/12 11:56:45;;;;;;;;;;;1.70;99.90;;;;;;2615345;39;20341;-76
2024/01/12 11:59:16;;;;;;;;;;;1.70;99.90;;;;;;2616996;54;19950;-76
2024/01/12 12:01:46;;;;;;;;;;;1.70;99.90;;;;;;2617640;47;20019;-79
2024/01/12 12:04:17;;;;;;;;;;;1.70;99.90;;;;;;2614539;54;19957;-77
2024/01/12 12:06:48;;;;;;;;;;;1.60;99.90;;;;;;2615227;47;19953;-77
2024/01/12 12:09:19;;;;;;;;;;;1.60;99.90;;;;;;2615638;47;19953;-78
2024/01/12 12:11:52;;;;;;;;;;;1.70;99.90;;;;;;2616073;54;19950;-78
2024/01/12 12:14:23;;;;;;;;;;;1.70;99.90;;;;;;2613869;47;20038;-77
2024/01/12 12:16:54;;;;;;;;;;;1.70;99.90;;;;;;2614274;54;19956;-76
2024/01/12 12:19:24;;;;;;;;;;;1.70;99.90;;;;;;2615521;54;19964;-77
2024/01/12 12:21:56;;;;;;;;;;;1.70;99.90;;;;;;2614958;54;19957;-74
2024/01/12 12:24:29;;;;;;;;;;;1.60;99.90;;;;;;2615607;54;19956;-76
2024/01/12 12:27:04;;;;;;;;;;;1.60;99.90;;;;;;2614081;47;19961;-76
2024/01/12 12:29:36;;;;;;;;;;;1.60;99.90;;;;;;2615207;54;21240;-76
2024/01/12 12:32:06;;;;;;;;;;;1.50;99.90;;;;;;2614732;39;20356;-78
2024/01/12 12:34:43;;;;;;;;;;;1.40;99.90;;;;;;2613642;47;20014;-76
2024/01/12 12:37:14;;;;;;;;;;;1.50;99.90;;;;;;2614475;47;19950;-77
2024/01/12 12:39:45;;;;;;;;;;;1.60;99.90;;;;;;2617582;54;19954;-79
2024/01/12 12:42:18;;;;;;;;;;;1.50;99.90;;;;;;2615029;54;19956;-77
2024/01/12 12:44:49;;;;;;;;;;;1.50;99.90;;;;;;2619266;47;20368;-81
2024/01/12 12:47:21;;;;;;;;;;;1.40;99.90;;;;;;2615966;47;19946;-77
2024/01/12 12:49:51;;;;;;;;;;;1.40;99.90;;;;;;2615286;47;19954;-77
2024/01/12 12:52:21;;;;;;;;;;;1.40;99.90;;;;;;2617032;47;19951;-78
2024/01/12 12:54:52;;;;;;;;;;;2.20;99.90;;;;;;2624124;54;19971;-76
2024/01/12 12:57:25;;;;;;;;;;;1.60;99.90;;;;;;2629986;47;19939;-78
2024/01/12 12:59:56;;;;;;;;;;;1.70;99.90;;;;;;2623070;54;19951;-81
2024/01/12 13:02:26;;;;;;;;;;;1.70;99.90;;;;;;2619725;47;19946;-80
2024/01/12 13:04:56;;;;;;;;;;;1.70;99.90;;;;;;2620046;54;19953;-80
2024/01/12 13:10:18;;;;;;;;;;;1.70;99.90;;;;;;2629582;54;19923;-75
2024/01/12 13:12:56;;;;;;;;;;;1.70;99.90;;;;;;2629082;54;19957;-76
2024/01/12 13:15:26;;;;;;;;;;;1.90;99.90;;;;;;2607491;54;19947;-76
2024/01/12 13:17:55;;;;;;;;;;;1.60;99.90;;;;;;2602088;47;19950;-76
2024/01/12 13:20:25;;;;;;;;;;;1.70;99.90;;;;;;2605161;54;19951;-75
2024/01/12 13:22:56;;;;;;;;;;;1.60;99.90;;;;;;2604880;54;19955;-75
2024/01/12 13:25:26;;;;;;;;;;;1.60;99.90;;;;;;2604043;31;20586;-79
2024/01/12 13:27:59;;;;;;;;;;;1.50;99.90;;;;;;2614916;47;19951;-77
2024/01/12 13:30:28;;;;;;;;;;;1.50;99.90;;;;;;2620459;54;20038;-77
2024/01/12 13:32:58;;;;;;;;;;;1.50;99.90;;;;;;2618737;46;19955;-78
2024/01/12 13:35:28;;;;;;;;;;;1.50;99.90;;;;;;2619488;47;19939;-76
2024/01/12 13:37:58;;;;;;;;;;;1.70;99.90;;;;;;2616073;54;19994;-76
2024/01/12 13:40:27;;;;;;;;;;;1.50;99.90;;;;;;2617727;54;19946;-76
2024/01/12 13:43:00;;;;;;;;;;;1.50;99.90;;;;;;2618437;54;20095;-76
2024/01/12 13:45:31;;;;;;;;;;;1.60;99.90;;;;;;2617048;54;19946;-74
2024/01/12 13:48:00;;;;;;;;;;;1.50;99.90;;;;;;2617315;54;19945;-74
2024/01/12 13:50:31;;;;;;;;;;;1.50;99.90;;;;;;2619237;47;19953;-74
2024/01/12 13:53:03;;;;;;;;;;;1.40;99.90;;;;;;2616341;54;19958;-73
2024/01/12 13:55:33;;;;;;;;;;;1.40;99.90;;;;;;2616571;54;19942;-75
2024/01/12 13:58:05;;;;;;;;;;;1.40;99.90;;;;;;2616349;47;19946;-75
2024/01/12 14:00:35;;;;;;;;;;;1.50;99.90;;;;;;2620132;54;19942;-74
2024/01/12 14:03:05;;;;;;;;;;;1.40;99.90;;;;;;2621520;46;19968;-75
2024/01/12 14:05:35;;;;;;;;;;;1.50;99.90;;;;;;2619921;47;20006;-73
2024/01/12 14:08:05;;;;;;;;;;;1.50;99.90;;;;;;2618914;46;19947;-74
2024/01/12 14:10:36;;;;;;;;;;;1.50;99.90;;;;;;2618978;54;20018;-74
2024/01/12 14:13:08;;;;;;;;;;;1.40;99.90;;;;;;2619093;54;19954;-75
2024/01/12 14:15:43;;;;;;;;;;;1.40;99.90;;;;;;2616608;47;19951;-76
2024/01/12 14:18:13;;;;;;;;;;;1.40;99.90;;;;;;2616733;54;19945;-74
2024/01/12 14:20:43;;;;;;;;;;;1.40;99.90;;;;;;2617474;47;19958;-73
2024/01/12 14:23:13;;;;;;;;;;;1.40;99.90;;;;;;2617957;47;19998;-74
2024/01/12 14:25:43;;;;;;;;;;;1.50;99.90;;;;;;2618486;54;19949;-78
2024/01/12 14:28:17;;;;;;;;;;;1.50;99.90;;;;;;2619200;54;19986;-75
2024/01/12 14:31:00;;;;;;;;;;;1.50;99.90;;;;;;2618650;46;19942;-76
2024/01/12 14:33:33;;;;;;;;;;;1.60;99.90;;;;;;2617449;54;19945;-74
2024/01/12 14:36:05;;;;;;;;;;;1.60;99.90;;;;;;2616910;54;19950;-76
2024/01/12 14:38:43;;;;;;;;;;;1.60;99.90;;;;;;2617576;54;20267;-75
2024/01/12 14:41:13;;;;;;;;;;;1.60;99.90;;;;;;2617502;46;20018;-74
2024/01/12 14:43:46;;;;;;;;;;;1.70;99.90;;;;;;2617943;54;19946;-76
2024/01/12 14:46:15;;;;;;;;;;;1.60;99.90;;;;;;2619465;54;20469;-76
2024/01/12 14:48:45;;;;;;;;;;;1.60;99.90;;;;;;2617506;54;19966;-75
2024/01/12 14:51:15;;;;;;;;;;;1.60;99.90;;;;;;2614715;54;19958;-74
2024/01/12 14:53:45;;;;;;;;;;;1.50;99.90;;;;;;2615964;54;19939;-75
2024/01/12 14:56:16;;;;;;;;;;;1.50;99.90;;;;;;2619019;47;20456;-74